Destinations Poprad-Tatry Airport

Poprad-Tatry Airport (LZTT / TAT)

Flights to Poprad-Tatry Airport

Flight number From ETE Dispatch
SPY-2470 EGPH Edinburgh Airport 02:55

Flights from Poprad-Tatry Airport

Flight number To ETE Dispatch
SPY-2471 EGPH Edinburgh Airport 02:55
About

Poprad-Tatry Airport facts

Poprad-Tatry Airport is located in Poprad at an elevation of 718.1 meters or 2356 feet.

Currently, Speedy Airlines serves 2 flights to and from Poprad-Tatry Airport.

Detailed airport info

Route map

Weather

Current weather

METAR

METAR

Metar data retrieved Sunday, 21 July 2024 at 20:25 UTC

LZTT 212000Z VRB02KT 9999 FEW030 SCT043 18/16 Q1013
Wind Temperature
2 kt 18c